Time;durP1;ratioP1;P1;durP2;ratioP2;P2;SDS_P1;SDS_P2;PMS_P1;PMS_P2;Temp;Humidity;BMP_temperature;BMP_pressure;BME280_temperature;BME280_humidity;BME280_pressure;Samples;Min_cycle;Max_cycle;Signal;HPM_P1;HPM_P2
2023/06/07 00:00:41;;;;;;;17.70;12.48;;;;;;;16.86;100.00;98448.38;2608689;28;20115;-81
2023/06/07 00:02:16;;;;;;;15.80;12.25;;;;;;;16.84;100.00;98442.31;2608506;28;20053;-82
2023/06/07 00:03:36;;;;;;;15.15;12.20;;;;;;;16.86;100.00;98438.66;2608282;28;20049;-81
2023/06/07 00:04:52;;;;;;;15.00;12.13;;;;;;;16.83;100.00;98443.25;2608869;28;20068;-82
2023/06/07 00:06:13;;;;;;;14.20;12.00;;;;;;;16.85;100.00;98441.38;2608840;28;20134;-82
2023/06/07 00:07:29;;;;;;;14.43;12.10;;;;;;;16.86;100.00;98436.00;2608776;28;20132;-81
2023/06/07 00:08:45;;;;;;;14.50;11.27;;;;;;;16.89;100.00;98448.19;2608667;28;20516;-82
2023/06/07 00:10:00;;;;;;;13.88;11.25;;;;;;;16.92;100.00;98450.69;2608338;28;20479;-81
2023/06/07 00:11:16;;;;;;;15.93;11.75;;;;;;;16.88;100.00;98438.56;2608464;28;20049;-82
2023/06/07 00:12:32;;;;;;;12.77;10.90;;;;;;;16.86;100.00;98445.72;2607847;28;20132;-82
2023/06/07 00:13:48;;;;;;;21.63;12.88;;;;;;;16.91;100.00;98441.88;2608518;28;20133;-82
2023/06/07 00:15:05;;;;;;;19.00;12.13;;;;;;;16.86;100.00;98443.06;2608465;28;20049;-82
2023/06/07 00:16:23;;;;;;;24.13;13.77;;;;;;;16.87;100.00;98440.34;2608242;28;20081;-81
2023/06/07 00:17:40;;;;;;;18.13;13.63;;;;;;;16.92;100.00;98440.13;2608624;28;20432;-82
2023/06/07 00:18:57;;;;;;;86.57;15.88;;;;;;;16.87;100.00;98440.34;2608088;28;20053;-82
2023/06/07 00:20:14;;;;;;;103.32;15.20;;;;;;;16.84;100.00;98442.31;2608483;28;20179;-82
2023/06/07 00:21:30;;;;;;;54.53;14.32;;;;;;;16.63;100.00;98443.38;2608229;28;20049;-82
2023/06/07 00:22:47;;;;;;;70.00;15.50;;;;;;;16.76;100.00;98437.44;2608302;28;20463;-82
2023/06/07 00:24:03;;;;;;;87.32;14.50;;;;;;;16.72;100.00;98435.91;2608055;28;20048;-81
2023/06/07 00:25:19;;;;;;;92.50;15.40;;;;;;;16.85;100.00;98441.38;2608278;28;20055;-81
2023/06/07 00:26:34;;;;;;;29.02;14.95;;;;;;;17.00;100.00;98439.72;2608273;28;20091;-82
2023/06/07 00:27:50;;;;;;;17.70;12.10;;;;;;;16.91;100.00;98444.53;2608161;28;20059;-82
2023/06/07 00:29:06;;;;;;;17.85;12.85;;;;;;;17.00;100.00;98434.44;2608306;28;20544;-82
2023/06/07 00:30:21;;;;;;;19.05;12.65;;;;;;;16.97;100.00;98440.72;2608635;28;20045;-82
2023/06/07 00:31:37;;;;;;;36.25;13.98;;;;;;;16.92;100.00;98445.41;2608260;28;20049;-82
2023/06/07 00:32:53;;;;;;;20.30;13.57;;;;;;;16.96;100.00;98449.56;2608358;28;20932;-82
2023/06/07 00:34:08;;;;;;;39.10;14.30;;;;;;;16.91;100.00;98441.06;2608114;28;20053;-82
2023/06/07 00:35:24;;;;;;;24.98;13.85;;;;;;;16.95;100.00;98430.19;2608150;28;20406;-82
2023/06/07 00:36:39;;;;;;;43.95;14.18;;;;;;;17.04;100.00;98444.78;2608095;28;20087;-82
2023/06/07 00:37:55;;;;;;;30.10;14.00;;;;;;;17.03;100.00;98435.09;2607934;28;20075;-82
2023/06/07 00:39:10;;;;;;;24.15;13.57;;;;;;;17.00;100.00;98434.44;2608269;28;20056;-82
2023/06/07 00:40:26;;;;;;;20.25;13.48;;;;;;;17.00;100.00;98437.91;2608287;28;20041;-82
2023/06/07 00:41:41;;;;;;;31.13;13.60;;;;;;;17.02;100.00;98436.03;2608309;28;20049;-82
2023/06/07 00:42:57;;;;;;;55.47;15.02;;;;;;;17.03;100.00;98442.19;2608670;28;21035;-81
2023/06/07 00:44:13;;;;;;;24.85;13.90;;;;;;;16.96;100.00;98439.00;2608158;28;20052;-82
2023/06/07 00:45:29;;;;;;;22.55;13.77;;;;;;;16.85;100.00;98442.25;2608493;28;20053;-82
2023/06/07 00:46:45;;;;;;;18.83;12.43;;;;;;;16.86;100.00;98443.06;2608367;28;20056;-82
2023/06/07 00:48:01;;;;;;;17.30;12.57;;;;;;;16.82;100.00;98441.53;2608133;28;20045;-82
2023/06/07 00:49:17;;;;;;;15.75;12.82;;;;;;;16.79;100.00;98443.41;2608293;28;20136;-82
2023/06/07 00:50:34;;;;;;;14.52;11.55;;;;;;;16.67;100.00;98436.97;2607632;28;20080;-83
2023/06/07 00:51:50;;;;;;;16.73;12.98;;;;;;;16.71;100.00;98445.59;2608259;28;20044;-82
2023/06/07 00:53:07;;;;;;;17.85;12.27;;;;;;;16.71;100.00;98442.97;2608328;28;20056;-82
2023/06/07 00:54:23;;;;;;;15.55;12.30;;;;;;;16.72;100.00;98441.19;2608136;28;20164;-82
2023/06/07 00:55:38;;;;;;;16.42;11.35;;;;;;;16.82;100.00;98436.25;2608535;28;20118;-81
2023/06/07 00:56:55;;;;;;;16.55;12.85;;;;;;;16.85;100.00;98439.59;2608269;28;20049;-82
2023/06/07 00:58:11;;;;;;;17.17;12.45;;;;;;;16.78;100.00;98436.44;2604137;28;20135;-81
2023/06/07 00:59:26;;;;;;;16.48;11.82;;;;;;;16.82;100.00;98430.97;2604182;28;20044;-82
2023/06/07 01:00:42;;;;;;;12.65;10.93;;;;;;;16.85;100.00;98436.94;2608427;28;20146;-82
2023/06/07 01:01:57;;;;;;;16.33;11.45;;;;;;;16.88;100.00;98438.56;2607944;28;20480;-82
2023/06/07 01:03:14;;;;;;;15.02;11.90;;;;;;;16.87;100.00;98434.19;2607909;28;20072;-82
2023/06/07 01:04:30;;;;;;;14.40;11.23;;;;;;;16.86;100.00;98429.84;2608169;28;20045;-82
2023/06/07 01:05:47;;;;;;;15.23;11.60;;;;;;;16.82;100.00;98436.25;2608075;28;20053;-82
2023/06/07 01:07:03;;;;;;;17.33;12.70;;;;;;;16.57;100.00;98433.13;2608009;28;20128;-82
2023/06/07 01:08:20;;;;;;;20.45;12.48;;;;;;;16.45;100.00;98425.84;2608317;28;20049;-83
2023/06/07 01:09:35;;;;;;;20.30;12.85;;;;;;;16.47;100.00;98427.44;2608764;28;20412;-82
2023/06/07 01:10:52;;;;;;;22.67;13.02;;;;;;;16.36;100.00;98432.47;2610358;28;20049;-82
2023/06/07 01:12:13;;;;;;;20.45;13.23;;;;;;;16.31;100.00;98430.06;2610342;28;20053;-82
2023/06/07 01:13:30;;;;;;;19.83;13.25;;;;;;;16.35;100.00;98428.13;2610266;28;20085;-82
2023/06/07 01:14:48;;;;;;;23.13;13.00;;;;;;;16.13;100.00;98434.50;2610002;28;20669;-82
2023/06/07 01:16:04;;;;;;;21.63;13.85;;;;;;;16.02;100.00;98429.78;2610138;28;20045;-81
2023/06/07 01:17:24;;;;;;;23.85;13.73;;;;;;;16.01;100.00;98435.13;2610214;28;20083;-82
2023/06/07 01:18:42;;;;;;;24.08;14.65;;;;;;;16.12;100.00;98432.78;2609782;28;20091;-82
2023/06/07 01:19:59;;;;;;;23.60;14.45;;;;;;;16.06;100.00;98433.97;2610250;28;20645;-82
2023/06/07 01:21:19;;;;;;;21.10;13.73;;;;;;;15.94;100.00;98430.16;2610013;28;20481;-81
2023/06/07 01:22:35;;;;;;;23.05;14.82;;;;;;;16.07;100.00;98429.53;2610563;28;20091;-81
2023/06/07 01:23:50;;;;;;;20.77;15.00;;;;;;;16.06;100.00;98427.81;2610240;28;20067;-82
2023/06/07 01:25:07;;;;;;;18.27;13.77;;;;;;;16.27;100.00;98423.22;2610392;28;20048;-81
2023/06/07 01:26:26;;;;;;;22.48;13.18;;;;;;;16.28;100.00;98426.72;2610063;28;20131;-81
2023/06/07 01:27:44;;;;;;;20.30;13.75;;;;;;;16.33;100.00;98424.69;2610263;28;20734;-82
2023/06/07 01:29:05;;;;;;;17.73;13.02;;;;;;;16.29;100.00;98421.38;2608862;28;20049;-81
2023/06/07 01:30:23;;;;;;;19.23;13.73;;;;;;;16.18;100.00;98426.34;2609730;28;20085;-82
2023/06/07 01:31:40;;;;;;;19.00;13.57;;;;;;;16.27;100.00;98420.56;2610006;28;20048;-81
2023/06/07 01:32:56;;;;;;;18.80;13.35;;;;;;;16.26;100.00;98418.84;2610015;28;20500;-81
2023/06/07 01:34:13;;;;;;;19.23;13.43;;;;;;;16.27;100.00;98417.91;2610133;28;20053;-81
2023/06/07 01:35:30;;;;;;;16.67;12.80;;;;;;;16.18;100.00;98424.53;2609975;28;20136;-82
2023/06/07 01:36:47;;;;;;;16.15;13.07;;;;;;;16.07;100.00;98421.63;2609338;28;20553;-81
2023/06/07 01:38:03;;;;;;;19.83;13.93;;;;;;;16.03;100.00;98420.03;2609529;28;20045;-82
2023/06/07 01:39:20;;;;;;;20.55;13.45;;;;;;;16.05;100.00;98420.81;2610013;28;20063;-82
2023/06/07 01:40:36;;;;;;;18.40;13.45;;;;;;;15.99;100.00;98421.97;2609913;28;20049;-81
2023/06/07 01:41:52;;;;;;;18.77;13.70;;;;;;;16.12;100.00;98424.88;2609761;28;20084;-81
2023/06/07 01:43:09;;;;;;;17.70;13.30;;;;;;;16.29;100.00;98412.56;2610062;28;20052;-82
2023/06/07 01:44:26;;;;;;;18.13;13.88;;;;;;;16.42;100.00;98418.94;2609484;28;20052;-82
2023/06/07 01:45:44;;;;;;;18.17;13.57;;;;;;;16.55;100.00;98421.75;2610000;28;20137;-81
2023/06/07 01:47:00;;;;;;;20.35;13.02;;;;;;;16.52;100.00;98422.81;2609805;28;20500;-81
2023/06/07 01:48:16;;;;;;;16.52;12.65;;;;;;;16.48;100.00;98417.75;2610106;28;20053;-81
2023/06/07 01:49:32;;;;;;;16.65;13.23;;;;;;;16.36;100.00;98416.63;2609884;28;20168;-81
2023/06/07 01:50:47;;;;;;;16.27;12.52;;;;;;;16.47;100.00;98410.75;2609930;28;20045;-82
2023/06/07 01:52:03;;;;;;;18.35;12.35;;;;;;;16.49;100.00;98415.03;2609910;28;20124;-81
2023/06/07 01:53:19;;;;;;;16.08;12.85;;;;;;;16.34;100.00;98416.69;2609621;28;20049;-83
2023/06/07 01:54:35;;;;;;;18.05;13.38;;;;;;;16.56;100.00;98412.94;2609652;28;20045;-82
2023/06/07 01:56:09;;;;;;;14.35;11.43;;;;;;;16.50;100.00;98410.59;2609951;28;20053;-81
2023/06/07 01:57:41;;;;;;;19.02;12.75;;;;;;;16.55;100.00;98408.56;2609905;28;20041;-81
2023/06/07 01:59:10;;;;;;;20.05;13.55;;;;;;;16.61;100.00;98407.38;2609786;28;20049;-82
2023/06/07 02:00:33;;;;;;;18.38;13.63;;;;;;;16.59;100.00;98409.25;2609926;28;20523;-82
2023/06/07 02:02:01;;;;;;;19.92;14.68;;;;;;;16.57;100.00;98413.75;2609844;28;20132;-82
2023/06/07 02:03:26;;;;;;;21.63;13.90;;;;;;;16.79;100.00;98406.41;2609758;28;20508;-82
2023/06/07 02:04:46;;;;;;;18.15;13.13;;;;;;;16.74;100.00;98400.50;2609493;28;20049;-81
2023/06/07 02:06:06;;;;;;;17.85;13.02;;;;;;;16.72;100.00;98406.81;2609497;28;20049;-81
2023/06/07 02:07:27;;;;;;;20.45;12.80;;;;;;;16.66;100.00;98408.00;2609463;28;20098;-81
2023/06/07 02:08:50;;;;;;;18.92;13.13;;;;;;;16.69;100.00;98409.59;2609307;28;20793;-82
2023/06/07 02:10:06;;;;;;;19.52;12.77;;;;;;;16.57;100.00;98398.78;2609560;28;20481;-81
2023/06/07 02:11:22;;;;;;;18.38;12.98;;;;;;;16.60;100.00;98405.66;2609603;28;20095;-81
2023/06/07 02:12:39;;;;;;;22.90;13.07;;;;;;;16.70;100.00;98406.88;2609747;28;20127;-81
2023/06/07 02:13:55;;;;;;;17.02;12.07;;;;;;;16.65;100.00;98409.78;2609600;28;20048;-82
2023/06/07 02:15:11;;;;;;;19.67;13.50;;;;;;;16.71;100.00;98397.19;2609814;28;20056;-82
2023/06/07 02:16:32;;;;;;;17.10;12.43;;;;;;;16.70;100.00;98393.66;2609615;28;20705;-81
2023/06/07 02:17:58;;;;;;;17.98;12.75;;;;;;;16.70;100.00;98403.41;2609682;28;20063;-81
2023/06/07 02:19:16;;;;;;;17.70;13.07;;;;;;;16.51;100.00;98399.94;2609159;28;20048;-82
2023/06/07 02:20:34;;;;;;;16.17;12.27;;;;;;;16.47;100.00;98402.84;2609436;28;20053;-81
2023/06/07 02:21:50;;;;;;;21.27;13.07;;;;;;;16.62;100.00;98401.16;2608559;28;20232;-82
2023/06/07 02:23:06;;;;;;;17.48;13.30;;;;;;;16.52;100.00;98403.44;2609493;28;20065;-81
2023/06/07 02:24:21;;;;;;;16.58;12.32;;;;;;;16.60;100.00;98403.03;2609616;28;20041;-81
2023/06/07 02:25:38;;;;;;;16.15;12.13;;;;;;;16.54;100.00;98403.38;2609436;28;20056;-81
2023/06/07 02:26:54;;;;;;;17.60;13.25;;;;;;;16.63;100.00;98403.72;2609263;28;20143;-81
2023/06/07 02:28:09;;;;;;;17.55;13.57;;;;;;;16.72;100.00;98409.47;2609668;28;20559;-82
2023/06/07 02:29:25;;;;;;;24.77;14.07;;;;;;;16.73;100.00;98406.72;2608489;28;20102;-81
2023/06/07 02:30:41;;;;;;;19.00;13.25;;;;;;;16.67;100.00;98399.97;2609061;28;20409;-81
2023/06/07 02:32:00;;;;;;;18.40;12.68;;;;;;;16.64;100.00;98409.88;2608855;28;20045;-82
2023/06/07 02:33:16;;;;;;;16.83;12.85;;;;;;;16.72;100.00;98397.09;2609524;28;20088;-81
2023/06/07 02:34:34;;;;;;;23.23;13.88;;;;;;;16.75;100.00;98402.19;2608972;28;20045;-82
2023/06/07 02:35:50;;;;;;;15.75;12.18;;;;;;;16.69;100.00;98405.19;2609335;28;20053;-81
2023/06/07 02:37:05;;;;;;;19.00;12.98;;;;;;;16.63;100.00;98409.00;2609132;28;20107;-81
2023/06/07 02:38:21;;;;;;;16.70;12.95;;;;;;;16.72;100.00;98410.31;2609215;28;20049;-81
2023/06/07 02:39:37;;;;;;;15.95;12.18;;;;;;;16.76;100.00;98401.28;2608716;28;20049;-82
2023/06/07 02:40:54;;;;;;;16.10;12.95;;;;;;;16.74;100.00;98411.06;2609204;28;20091;-82
2023/06/07 02:42:10;;;;;;;15.48;12.35;;;;;;;16.71;100.00;98403.31;2609346;28;20056;-81
2023/06/07 02:43:25;;;;;;;17.90;12.85;;;;;;;16.72;100.00;98397.09;2609554;28;20420;-81
2023/06/07 02:44:41;;;;;;;19.80;13.93;;;;;;;16.63;100.00;98402.88;2609023;28;20566;-81
2023/06/07 02:45:56;;;;;;;18.02;13.32;;;;;;;16.74;100.00;98391.72;2608533;28;20062;-81
2023/06/07 02:47:12;;;;;;;20.20;13.95;;;;;;;16.70;100.00;98391.03;2608055;28;20056;-82
2023/06/07 02:48:28;;;;;;;19.00;13.43;;;;;;;16.65;100.00;98395.72;2608411;28;20123;-82
2023/06/07 02:49:43;;;;;;;19.08;13.00;;;;;;;16.64;100.00;98394.84;2609409;28;20052;-81
2023/06/07 02:50:59;;;;;;;18.67;12.68;;;;;;;16.64;100.00;98397.50;2609099;28;20356;-81
2023/06/07 02:52:15;;;;;;;18.50;13.57;;;;;;;16.73;100.00;98390.84;2609477;28;20063;-81
2023/06/07 02:53:30;;;;;;;20.05;13.35;;;;;;;16.69;100.00;98389.31;2609413;28;20048;-82
2023/06/07 02:54:46;;;;;;;18.08;13.60;;;;;;;16.66;100.00;98397.44;2609157;28;20415;-81
2023/06/07 02:56:01;;;;;;;18.67;13.30;;;;;;;16.63;100.00;98397.59;2609213;28;20487;-81
2023/06/07 02:57:17;;;;;;;20.52;14.15;;;;;;;16.63;100.00;98397.59;2609035;28;20048;-82
2023/06/07 02:58:34;;;;;;;17.45;12.93;;;;;;;16.64;100.00;98397.50;2608447;28;20041;-81
2023/06/07 02:59:52;;;;;;;17.85;13.20;;;;;;;16.66;100.00;98400.06;2608759;28;20143;-82
2023/06/07 03:01:08;;;;;;;20.58;14.10;;;;;;;16.64;100.00;98391.38;2609245;28;20045;-82
2023/06/07 03:02:24;;;;;;;17.08;13.30;;;;;;;16.69;100.00;98394.59;2604309;28;20414;-82
2023/06/07 03:03:42;;;;;;;23.45;14.57;;;;;;;16.70;100.00;98403.41;2606374;28;20084;-81
2023/06/07 03:04:57;;;;;;;18.05;13.90;;;;;;;16.74;100.00;98395.19;2609546;28;20127;-82
2023/06/07 03:06:15;;;;;;;19.33;13.38;;;;;;;16.72;100.00;98402.38;2608934;28;21051;-82
2023/06/07 03:07:32;;;;;;;17.67;12.50;;;;;;;16.72;100.00;98393.59;2609344;28;20432;-81
2023/06/07 03:08:47;;;;;;;20.95;14.55;;;;;;;16.64;100.00;98401.94;2608869;28;20064;-81
2023/06/07 03:10:03;;;;;;;20.35;14.32;;;;;;;16.62;100.00;98403.78;2608792;28;20500;-82
2023/06/07 03:11:19;;;;;;;16.25;13.10;;;;;;;16.61;100.00;98402.09;2609041;28;20049;-81
2023/06/07 03:12:34;;;;;;;22.17;14.60;;;;;;;16.64;100.00;98396.66;2609058;28;20052;-82
2023/06/07 03:13:50;;;;;;;39.03;14.93;;;;;;;16.56;100.00;98405.00;2608956;28;20320;-82
2023/06/07 03:15:07;;;;;;;18.63;14.52;;;;;;;16.49;100.00;98400.97;2608380;28;20052;-81
2023/06/07 03:16:23;;;;;;;33.95;14.98;;;;;;;16.61;100.00;98400.31;2608090;28;20523;-82
2023/06/07 03:17:41;;;;;;;20.80;14.20;;;;;;;16.62;100.00;98406.44;2609113;28;20044;-82
2023/06/07 03:18:57;;;;;;;26.40;14.93;;;;;;;16.64;100.00;98407.22;2608765;28;20140;-82
2023/06/07 03:20:13;;;;;;;20.83;14.55;;;;;;;16.61;100.00;98410.88;2609271;28;20539;-82
2023/06/07 03:21:29;;;;;;;23.83;14.75;;;;;;;16.68;100.00;98414.06;2608789;28;20072;-81
2023/06/07 03:22:45;;;;;;;34.08;14.90;;;;;;;16.69;100.00;98410.47;2608501;28;20080;-82
2023/06/07 03:24:00;;;;;;;32.72;14.27;;;;;;;16.71;100.00;98408.59;2609074;28;20045;-82
2023/06/07 03:25:16;;;;;;;35.42;14.45;;;;;;;16.51;100.00;98407.00;2608563;28;20061;-82
2023/06/07 03:26:32;;;;;;;25.80;15.20;;;;;;;16.64;100.00;98416.00;2608851;28;20053;-81
2023/06/07 03:27:47;;;;;;;23.58;14.07;;;;;;;16.69;100.00;98409.59;2608969;28;20049;-82
2023/06/07 03:29:03;;;;;;;24.17;14.30;;;;;;;16.75;100.00;98417.22;2608976;28;20053;-82
2023/06/07 03:30:19;;;;;;;22.38;14.32;;;;;;;16.74;100.00;98416.34;2608813;28;20840;-82
2023/06/07 03:31:34;;;;;;;24.20;13.30;;;;;;;16.59;100.00;98412.75;2608913;28;20553;-82
2023/06/07 03:32:50;;;;;;;38.63;14.57;;;;;;;16.70;100.00;98414.81;2608558;28;20423;-83
2023/06/07 03:34:06;;;;;;;47.65;14.35;;;;;;;16.70;100.00;98412.19;2607743;28;20076;-81
2023/06/07 03:35:22;;;;;;;25.17;14.18;;;;;;;16.65;100.00;98416.88;2608109;28;20058;-82
2023/06/07 03:36:37;;;;;;;34.25;14.88;;;;;;;16.78;100.00;98406.47;2608670;28;20049;-82
2023/06/07 03:37:53;;;;;;;37.08;14.50;;;;;;;16.84;100.00;98407.94;2608472;28;20055;-82
2023/06/07 03:39:09;;;;;;;28.95;15.93;;;;;;;16.78;100.00;98409.97;2608649;28;20048;-82
2023/06/07 03:40:25;;;;;;;27.95;14.90;;;;;;;16.70;100.00;98414.81;2609019;28;20417;-82
2023/06/07 03:41:40;;;;;;;22.30;14.18;;;;;;;16.47;100.00;98408.97;2608554;28;20056;-81
2023/06/07 03:42:56;;;;;;;23.38;14.88;;;;;;;16.66;100.00;98411.47;2609104;28;20048;-82
2023/06/07 03:44:11;;;;;;;29.35;15.10;;;;;;;16.70;100.00;98416.63;2608832;28;20049;-82
2023/06/07 03:45:27;;;;;;;26.10;15.60;;;;;;;16.67;100.00;98413.19;2608804;28;20400;-82
2023/06/07 03:46:43;;;;;;;22.85;14.90;;;;;;;16.65;100.00;98415.06;2608971;28;20053;-82
2023/06/07 03:47:58;;;;;;;22.92;16.33;;;;;;;16.67;100.00;98417.63;2607677;28;20415;-82
2023/06/07 03:49:14;;;;;;;21.90;15.32;;;;;;;16.59;100.00;98419.81;2607647;28;20045;-80
2023/06/07 03:50:29;;;;;;;21.10;14.68;;;;;;;16.72;100.00;98418.22;2608548;28;20572;-82
2023/06/07 03:51:45;;;;;;;28.00;15.85;;;;;;;16.79;100.00;98416.97;2608535;28;20045;-82
2023/06/07 03:53:01;;;;;;;25.65;15.38;;;;;;;16.77;100.00;98418.84;2608868;28;20139;-82
2023/06/07 03:54:16;;;;;;;23.52;15.52;;;;;;;16.64;100.00;98413.34;2608420;28;20139;-83
2023/06/07 03:55:33;;;;;;;26.70;15.60;;;;;;;16.62;100.00;98414.38;2608758;28;20056;-82
2023/06/07 03:56:49;;;;;;;23.35;16.10;;;;;;;16.62;100.00;98417.88;2608830;28;20083;-82
2023/06/07 03:58:05;;;;;;;22.75;16.25;;;;;;;16.69;100.00;98417.53;2608565;28;20052;-82
2023/06/07 03:59:20;;;;;;;20.95;15.38;;;;;;;16.64;100.00;98421.28;2608582;28;20064;-82
2023/06/07 04:00:36;;;;;;;23.25;16.42;;;;;;;16.75;100.00;98412.78;2606984;28;20132;-82
2023/06/07 04:01:52;;;;;;;27.48;17.35;;;;;;;16.73;100.00;98416.44;2606106;28;20964;-82
2023/06/07 04:03:08;;;;;;;22.88;15.48;;;;;;;16.70;100.00;98417.47;2604355;28;20053;-82
2023/06/07 04:04:27;;;;;;;23.52;15.93;;;;;;;16.71;100.00;98419.16;2608110;28;20492;-82
2023/06/07 04:05:43;;;;;;;21.10;15.25;;;;;;;16.76;100.00;98416.28;2608729;28;20049;-82
2023/06/07 04:07:00;;;;;;;24.10;15.80;;;;;;;16.51;100.00;98417.59;2608128;28;20115;-82
2023/06/07 04:08:16;;;;;;;23.45;15.23;;;;;;;16.73;100.00;98419.94;2608453;28;20048;-82
2023/06/07 04:09:32;;;;;;;24.17;16.17;;;;;;;16.73;100.00;98414.66;2608632;28;20060;-80
2023/06/07 04:10:47;;;;;;;25.17;15.68;;;;;;;16.59;100.00;98422.47;2608320;28;20454;-80
2023/06/07 04:12:05;;;;;;;21.65;16.35;;;;;;;16.69;100.00;98418.41;2608722;28;20131;-80
2023/06/07 04:13:20;;;;;;;26.42;15.73;;;;;;;16.84;100.00;98418.50;2608346;28;20045;-81
2023/06/07 04:14:36;;;;;;;21.38;15.15;;;;;;;16.83;100.00;98425.56;2608214;28;20420;-80
2023/06/07 04:15:52;;;;;;;24.48;15.68;;;;;;;16.74;100.00;98420.81;2608465;28;20171;-80
2023/06/07 04:17:07;;;;;;;22.63;15.20;;;;;;;16.65;100.00;98424.78;2605503;28;20052;-80
2023/06/07 04:18:23;;;;;;;26.38;16.38;;;;;;;16.80;100.00;98421.31;2605598;28;20044;-80
2023/06/07 04:19:38;;;;;;;20.52;15.48;;;;;;;16.78;100.00;98422.34;2608227;28;20053;-82
2023/06/07 04:20:54;;;;;;;20.10;14.88;;;;;;;16.61;100.00;98420.59;2608670;28;20475;-81
2023/06/07 04:22:09;;;;;;;25.38;15.57;;;;;;;16.85;100.00;98414.94;2608099;28;20079;-81
2023/06/07 04:23:25;;;;;;;22.40;15.18;;;;;;;16.87;100.00;98413.06;2606229;28;20057;-81
2023/06/07 04:24:41;;;;;;;23.52;15.93;;;;;;;16.95;100.00;98421.44;2604947;28;20532;-81
2023/06/07 04:25:56;;;;;;;25.90;15.30;;;;;;;16.81;100.00;98414.22;2607509;28;20045;-82
2023/06/07 04:27:13;;;;;;;21.30;15.18;;;;;;;16.69;100.00;98418.41;2607332;28;20052;-82
2023/06/07 04:28:30;;;;;;;21.75;14.82;;;;;;;16.56;100.00;98426.16;2607410;28;20052;-82
2023/06/07 04:29:48;;;;;;;19.83;14.60;;;;;;;16.63;100.00;98427.50;2607601;28;20488;-81
2023/06/07 04:31:08;;;;;;;20.75;15.40;;;;;;;16.84;100.00;98422.03;2606883;28;20049;-82
2023/06/07 04:32:25;;;;;;;23.95;15.45;;;;;;;16.88;100.00;98420.91;2606421;28;20045;-82
2023/06/07 04:33:41;;;;;;;23.65;14.70;;;;;;;16.79;100.00;98427.56;2607401;28;20124;-82
2023/06/07 04:34:58;;;;;;;21.30;15.10;;;;;;;16.85;100.00;98425.50;2605996;28;20068;-82
2023/06/07 04:36:14;;;;;;;22.33;16.35;;;;;;;16.98;100.00;98425.72;2607156;28;20195;-82
2023/06/07 04:37:31;;;;;;;22.25;15.50;;;;;;;17.21;100.00;98424.47;2606405;28;20064;-82
2023/06/07 04:38:46;;;;;;;22.77;16.02;;;;;;;17.04;100.00;98423.63;2605992;28;20088;-82
2023/06/07 04:40:03;;;;;;;23.25;15.75;;;;;;;17.15;100.00;98422.16;2607089;28;20521;-81
2023/06/07 04:41:19;;;;;;;25.23;15.57;;;;;;;17.15;100.00;98427.44;2607150;28;20416;-83
2023/06/07 04:42:37;;;;;;;24.13;15.95;;;;;;;17.11;100.00;98428.56;2606798;28;20052;-81
2023/06/07 04:43:53;;;;;;;23.95;16.00;;;;;;;17.15;100.00;98422.16;2605948;28;20067;-81
2023/06/07 04:45:08;;;;;;;21.35;15.80;;;;;;;17.24;100.00;98426.94;2606068;28;20041;-81
2023/06/07 04:46:26;;;;;;;22.58;15.65;;;;;;;17.32;100.00;98427.38;2605586;28;20041;-81
2023/06/07 04:47:45;;;;;;;22.80;16.45;;;;;;;17.41;100.00;98427.78;2606455;28;20224;-81
2023/06/07 04:49:00;;;;;;;25.45;15.98;;;;;;;17.29;100.00;98430.16;2606398;28;20489;-81
2023/06/07 04:50:16;;;;;;;20.77;15.57;;;;;;;17.28;100.00;98433.75;2607300;28;20045;-81
2023/06/07 04:51:32;;;;;;;22.77;16.75;;;;;;;17.34;100.00;98421.97;2606003;28;20068;-81
2023/06/07 04:52:49;;;;;;;24.02;16.58;;;;;;;17.17;100.00;98425.56;2607147;28;20527;-81
2023/06/07 04:54:05;;;;;;;22.90;15.45;;;;;;;16.89;100.00;98417.31;2607605;28;20053;-81
2023/06/07 04:55:22;;;;;;;24.00;16.60;;;;;;;17.07;100.00;98420.78;2607002;28;20033;-82
2023/06/07 04:56:37;;;;;;;23.08;15.77;;;;;;;17.03;100.00;98429.81;2606567;28;20077;-82
2023/06/07 04:57:53;;;;;;;25.23;15.95;;;;;;;16.99;100.00;98423.00;2606855;28;20524;-81
2023/06/07 04:59:10;;;;;;;27.23;16.85;;;;;;;16.95;100.00;98422.25;2606660;28;20056;-81
2023/06/07 05:00:25;;;;;;;23.88;15.48;;;;;;;16.95;100.00;98422.25;2606700;28;20049;-82
2023/06/07 05:01:41;;;;;;;25.05;16.50;;;;;;;17.22;100.00;98428.81;2604686;28;20658;-81
2023/06/07 05:02:58;;;;;;;28.10;17.27;;;;;;;17.07;100.00;98438.44;2606093;28;20053;-81
2023/06/07 05:04:16;;;;;;;24.60;16.65;;;;;;;16.95;100.00;98422.25;2607158;28;20081;-81
2023/06/07 05:05:33;;;;;;;22.63;15.75;;;;;;;16.76;100.00;98430.38;2607495;28;20053;-81
2023/06/07 05:06:49;;;;;;;23.58;16.45;;;;;;;16.86;100.00;98432.50;2607715;28;20222;-81
2023/06/07 05:08:05;;;;;;;22.83;15.85;;;;;;;16.95;100.00;98427.56;2607789;28;20052;-81
2023/06/07 05:09:21;;;;;;;22.90;16.23;;;;;;;16.98;100.00;98429.19;2606467;28;20044;-82
2023/06/07 05:10:36;;;;;;;26.58;16.30;;;;;;;17.04;100.00;98436.84;2607623;28;20065;-81
2023/06/07 05:11:52;;;;;;;25.60;17.58;;;;;;;17.05;100.00;98433.25;2608121;28;20413;-82
2023/06/07 05:13:08;;;;;;;26.05;17.92;;;;;;;16.84;100.00;98435.25;2607562;28;20412;-81
2023/06/07 05:14:23;;;;;;;24.65;17.38;;;;;;;17.05;100.00;98435.03;2607481;28;20059;-83
2023/06/07 05:15:39;;;;;;;22.90;16.50;;;;;;;17.18;100.00;98437.84;2607903;28;20426;-82
2023/06/07 05:16:54;;;;;;;27.98;17.75;;;;;;;17.12;100.00;98439.06;2608047;28;20048;-82
2023/06/07 05:18:12;;;;;;;27.13;18.15;;;;;;;17.15;100.00;98441.53;2605623;28;20049;-82
2023/06/07 05:19:29;;;;;;;24.73;17.60;;;;;;;17.43;100.00;98445.28;2607348;28;20041;-82
2023/06/07 05:20:56;;;;;;;24.00;16.08;;;;;;;17.30;100.00;98445.09;2607144;28;20064;-84
2023/06/07 05:22:14;;;;;;;22.15;15.10;;;;;;;17.04;100.00;98438.63;2607022;28;20138;-82
2023/06/07 05:23:30;;;;;;;27.13;17.88;;;;;;;17.26;100.00;98440.09;2607158;28;20557;-82
2023/06/07 05:24:45;;;;;;;22.27;14.77;;;;;;;17.19;100.00;98442.22;2607583;28;20049;-82
2023/06/07 05:26:01;;;;;;;25.52;16.95;;;;;;;17.33;100.00;98439.66;2607673;28;20132;-81
2023/06/07 05:27:17;;;;;;;28.10;17.33;;;;;;;17.30;100.00;98447.75;2606524;28;20500;-82
2023/06/07 05:28:34;;;;;;;26.23;16.77;;;;;;;17.44;100.00;98443.47;2606921;28;20092;-81
2023/06/07 05:29:51;;;;;;;25.92;16.13;;;;;;;17.15;100.00;98438.00;2606990;28;20044;-82
2023/06/07 05:31:07;;;;;;;28.25;17.83;;;;;;;17.44;100.00;98448.78;2607898;28;20045;-81
2023/06/07 05:32:22;;;;;;;24.83;17.60;;;;;;;17.57;100.00;98446.31;2608287;28;20044;-81
2023/06/07 05:33:39;;;;;;;27.30;17.48;;;;;;;17.72;100.00;98444.56;2608084;28;20064;-81
2023/06/07 05:34:57;;;;;;;25.58;15.90;;;;;;;17.19;100.00;98445.72;2607415;28;20052;-81
2023/06/07 05:36:13;;;;;;;28.20;18.88;;;;;;;17.58;100.00;98446.19;2607478;28;20473;-82
2023/06/07 05:37:30;;;;;;;28.42;19.15;;;;;;;17.52;100.00;98446.56;2607156;28;20072;-81
2023/06/07 05:38:46;;;;;;;27.25;17.23;;;;;;;17.32;100.00;98445.91;2607487;28;20045;-81
2023/06/07 05:40:05;;;;;;;29.98;19.58;;;;;;;17.36;100.00;98451.84;2607793;28;20056;-82
2023/06/07 05:41:20;;;;;;;28.70;18.92;;;;;;;17.43;100.00;98444.41;2607919;28;20579;-82
2023/06/07 05:42:38;;;;;;;26.27;17.58;;;;;;;17.45;100.00;98438.09;2608036;28;20083;-81
2023/06/07 05:43:53;;;;;;;24.38;15.52;;;;;;;17.32;100.00;98439.72;2608148;28;20048;-81
2023/06/07 05:45:09;;;;;;;29.27;18.65;;;;;;;17.44;100.00;98446.13;2607171;28;20527;-84
2023/06/07 05:46:25;;;;;;;32.33;18.60;;;;;;;17.65;100.00;98442.28;2608199;28;20485;-83
2023/06/07 05:47:41;;;;;;;25.45;18.40;;;;;;;17.52;100.00;98449.19;2606051;28;20048;-81
2023/06/07 05:48:57;;;;;;;27.60;18.08;;;;;;;17.47;100.00;98446.81;2606778;28;20131;-82